Cairnbrook, PA (15924)

8:42 PM EST on February 08, 2016 (GMT -0500)
Ashtola | | Change Station
CLOSE
Current Station
Personal Weather Station
Location: Windber, PA
Elevation: 2085 ft
Nearby Weather Stations
Active Advisory: Winter Weather Advisory

Elev 2085 ft 40.20 °N, 78.80 °W | Updated 24 seconds ago

Overcast
Overcast
31.3 °F
Feels Like 31 °F
N
0.9
Wind Variable Wind from SSE
Gusts 2.0 mph

Today
High -- | Low -- °F
--% Chance of Precip.
Yesterday
High -- | Low -- °F
Precip. -- in
Pressure 29.61 in
Visibility 10.0 miles
Clouds Mostly Cloudy 4400 ft
Overcast 5500 ft
Windchill 31 °F
Dew Point 25 °F
Humidity 76%
Rainfall 0.00 in
Snow Depth Not available.
7:16 AM 5:41 PM
New Moon, 0% visible
METAR KHMZ 090115Z AUTO 00000KT 10SM BKN044 OVC055 02/M04 A2961 RMK AO2 T00231045
Pressure 29.61 in
Visibility 10.0 miles
Clouds Mostly Cloudy 4400 ft
Overcast 5500 ft
Windchill 31 °F
Dew Point 25 °F
Humidity 76%
Rainfall 0.00 in
Snow Depth Not available.
7:16 AM 5:41 PM
New Moon, 0% visible
METAR KHMZ 090115Z AUTO 00000KT 10SM BKN044 OVC055 02/M04 A2961 RMK AO2 T00231045

10-Day Weather Forecast

Almanac

Astronomy

Feb. 08, 2016 Rise Set
Actual Time
Civil Twilight
Nautical Twilight
Astronomical Twilight
Moon
Length of Visible Light
Length of Day
Tomorrow will be .
, % of the Moon is Illuminated

Today's Extremes

State Highs State Lows

Community

WunderPhotos

Upload Photos

1,891,527 photos uploaded!

WunderBlog® & News

Nearby

Air Quality

  Air Quality AQ Index Pollutant
Not available.

Snow Depth

Station Depth Elevation

Earthquake Activity

City Distance Mag. Time & Date
Minimum magnitude displayed is 2.5.

Coastal Water Temperatures

Place Temperature

Stations

Nearby Weather Stations

Station Location Temp. Windchill Dew Point Humidity Wind Precip. Elev Updated Type
                   

Watches & Warnings

Winter Weather Advisory
Issued: 2:21 PM EST Feb. 8, 2016 – National Weather Service

... Winter Weather Advisory now in effect until 7 PM EST
Wednesday...

* snow accumulations... 3 to 6 inches through Tuesday night with
locally higher amounts on the ridge tops. Additional snow
accumulation of 1 to 3 inches on Wednesday.

* Timing... long-duration snow event will begin late this afternoon
and continue into Wednesday.

* Impacts... hazardous travel conditions especially during the
Tuesday peak commute.

Precautionary/preparedness actions...

Hazardous winter weather conditions are expected or occurring.
Use caution if traveling. For the latest weather information... go
to weather.Gov/statecollege or monitor NOAA Weather Radio.

Report snow or ice accumulation to the National Weather Service
State College by sending an email to ctp.Stormreports@noaa.Gov...
posting to the NWS State College facebook Page... or tweet
@nwsstatecollege with the hashtag c... T... p... W... x.


MS/bg/ce